Esom Hill, Georgia
Current Conditions -  °F | °C
As of 12:15 AM on Saturday 29 Nov 2014 (Local Time) from KPUJ Reporting Station
Clear Clear  
Wind Chill: 41°   Ceiling: Unl
Heat Index: 41°   Visibility: 10mi
Dew Point: 23°   Wind: 0mph
Humidity: 49%   Direction: NA
Pressure: 30.24"   Gusts: NA
Location:  33.95°N, 85.39°W
Report Text: KPUJ 290515Z AUTO 00000KT 10SM CLR 05/M05 A3024 RMK AO2
Loading
Personal Weather Stations






























Interactive Weather Map New forecast layout! Learn more

10-Day Weather Forecast

Advertisements
Track Severe Weather on mobile